SBOSBO HAJ / EDDV
Speedbird OnlineSpeedbird Online HAJ / EDDV

Hannover Airport
09:12 13.6°C

Location Hannover, Germany
Latitude: 52.461101532
Longitude: 9.685079574580001
Web Wikipedia
Altitude 56 Meter / 183 Feet
Distance 663 KM / 412 Miles
from London.
Time Zone UTC +2 hours (Europe/Berlin)
Codes IATA: HAJ
ICAO: EDDV
Currency £1 equals EUR 1.15
Runways
RunwayLength (m)Surface
09C780Asphalt
09L3800Concrete
09R2340Concrete
27C780Asphalt
27L2340Concrete
27R3800Concrete
Radio
TypeDescriptionFrequency
AFISLANGEN INFORMATION119.825
APPDIRECTOR119.6
ATISATIS132.125
GNDGND121.95
RDRBREMEN RADAR131.325
TWRTWR120.175
Live ATC
METAR EDDV 060650Z AUTO 26011KT CAVOK 13/09 Q1025 NOSIG
TAF TAF EDDV 060500Z 0606/0706 26010KT 9999 SCT025 PROB30 TEMPO 0608/0612 26015G25KT BECMG 0615/0617 21005KT
Weather As Of 06 Oct 2022 09:12
Description Clear sky
Wind 22 km/h from West (260°)
Cloud Cover 0%
Precipitation Rain: none, Snow: none
Sunrise 07:30
Sunset 18:48
Lounges Karl-Jatho Lounge (Temporarily Closed), Between Terminal A and B
Rotations During the last 90 days there were
96 flights from LHR
95 flights to LHR


© 2017-2022 Speedbird Online